Time;durP1;ratioP1;P1;durP2;ratioP2;P2;SDS_P1;SDS_P2;PMS_P1;PMS_P2;Temp;Humidity;BMP_temperature;BMP_pressure;BME280_temperature;BME280_humidity;BME280_pressure;Samples;Min_cycle;Max_cycle;Signal;HPM_P1;HPM_P2
2022/10/19 00:00:42;;;;;;;;;;;;;;;24.04;47.06;97491.53;5054393;28;20406;-26
2022/10/19 00:03:07;;;;;;;;;;;;;;;24.00;47.20;97483.44;5054797;28;20357;-26
2022/10/19 00:05:32;;;;;;;;;;;;;;;24.04;47.10;97490.78;5054791;28;20340;-26
2022/10/19 00:08:00;;;;;;;;;;;;;;;24.05;46.92;97481.22;5054391;28;19909;-26
2022/10/19 00:10:26;;;;;;;;;;;;;;;24.04;47.25;97485.22;5054417;28;19913;-27
2022/10/19 00:12:51;;;;;;;;;;;;;;;23.97;47.41;97481.66;5054491;28;19919;-26
2022/10/19 00:15:16;;;;;;;;;;;;;;;23.98;47.33;97480.38;5054515;28;20370;-26
2022/10/19 00:17:42;;;;;;;;;;;;;;;24.07;47.06;97478.72;5054326;28;20325;-27
2022/10/19 00:20:07;;;;;;;;;;;;;;;24.03;46.99;97473.38;5054185;28;19913;-26
2022/10/19 00:22:33;;;;;;;;;;;;;;;24.04;47.06;97468.59;5054262;28;19912;-26
2022/10/19 00:24:58;;;;;;;;;;;;;;;24.01;47.19;97475.88;5054218;28;19909;-34
2022/10/19 00:27:23;;;;;;;;;;;;;;;23.99;47.40;97468.06;5054141;28;19909;-36
2022/10/19 00:29:49;;;;;;;;;;;;;;;23.94;47.44;97463.25;5054145;28;19954;-34
2022/10/19 00:32:14;;;;;;;;;;;;;;;23.97;47.42;97470.59;5054280;28;20264;-34
2022/10/19 00:34:39;;;;;;;;;;;;;;;24.03;47.57;97472.63;5054064;28;20316;-34
2022/10/19 00:37:05;;;;;;;;;;;;;;;23.96;47.75;97460.75;5054297;28;19908;-34
2022/10/19 00:39:30;;;;;;;;;;;;;;;23.99;47.51;97462.53;5052698;28;20134;-35
2022/10/19 00:41:55;;;;;;;;;;;;;;;24.04;47.69;97460.28;5053975;28;19943;-34
2022/10/19 00:44:30;;;;;;;;;;;;;;;23.93;47.65;97458.19;5053907;28;19908;-35
2022/10/19 00:47:02;;;;;;;;;;;;;;;24.00;47.70;97461.28;5053897;28;20005;-35
2022/10/19 00:49:30;;;;;;;;;;;;;;;23.95;47.74;97452.94;5053763;28;19916;-35
2022/10/19 00:52:03;;;;;;;;;;;;;;;23.96;47.90;97455.22;5053844;28;19908;-34
2022/10/19 00:54:30;;;;;;;;;;;;;;;23.96;47.82;97455.22;5053778;28;20003;-35
2022/10/19 00:56:56;;;;;;;;;;;;;;;23.99;48.09;97451.44;5053960;28;19912;-34
2022/10/19 00:59:23;;;;;;;;;;;;;;;23.96;47.85;97441.34;5053876;28;19909;-35
2022/10/19 01:01:49;;;;;;;;;;;;;;;23.92;48.26;97446.34;5053847;28;20340;-34
2022/10/19 01:04:15;;;;;;;;;;;;;;;23.96;48.22;97446.91;5053320;28;19999;-35
2022/10/19 01:06:41;;;;;;;;;;;;;;;24.00;48.18;97450.19;5053886;28;19909;-34
2022/10/19 01:09:07;;;;;;;;;;;;;;;23.99;48.05;97445.88;5053697;28;19963;-35
2022/10/19 01:11:41;;;;;;;;;;;;;;;23.88;48.22;97434.72;5053648;28;19912;-34
2022/10/19 01:14:22;;;;;;;;;;;;;;;23.93;48.06;97442.34;5035733;28;19932;-35
2022/10/19 01:16:47;;;;;;;;;;;;;;;23.91;48.15;97439.28;5054054;28;19912;-34
2022/10/19 01:19:27;;;;;;;;;;;;;;;23.88;48.22;97433.97;5053787;28;19908;-34
2022/10/19 01:22:07;;;;;;;;;;;;;;;23.86;48.14;97430.94;5053407;28;19956;-34
2022/10/19 01:24:32;;;;;;;;;;;;;;;23.92;48.16;97435.28;5053582;28;19999;-34
2022/10/19 01:27:13;;;;;;;;;;;;;;;23.93;48.01;97436.03;5053700;28;20371;-34
2022/10/19 01:29:41;;;;;;;;;;;;;;;23.95;48.00;97434.28;5053454;28;19909;-34
2022/10/19 01:32:11;;;;;;;;;;;;;;;23.94;48.13;97432.78;5053577;28;20008;-34
2022/10/19 01:34:42;;;;;;;;;;;;;;;23.91;48.03;97430.22;5053846;28;19916;-34
2022/10/19 01:37:31;;;;;;;;;;;;;;;23.91;48.16;97428.22;5053465;28;19908;-35
2022/10/19 01:40:02;;;;;;;;;;;;;;;23.90;47.88;97428.69;5052623;28;20304;-34
2022/10/19 01:42:35;;;;;;;;;;;;;;;23.83;48.49;97420.84;5053398;28;19913;-34
2022/10/19 01:45:24;;;;;;;;;;;;;;;23.80;48.45;97425.34;5053753;28;20374;-34
2022/10/19 01:47:52;;;;;;;;;;;;;;;23.87;48.60;97422.13;5052845;28;20376;-34
2022/10/19 01:50:29;;;;;;;;;;;;;;;23.80;48.83;97422.56;5053484;28;19908;-35
2022/10/19 01:52:55;;;;;;;;;;;;;;;23.86;48.69;97414.31;5053459;28;19916;-35
2022/10/19 01:55:21;;;;;;;;;;;;;;;23.80;48.93;97421.81;5053207;28;19909;-35
2022/10/19 01:57:48;;;;;;;;;;;;;;;23.78;48.91;97422.31;5051975;28;19913;-34
2022/10/19 02:00:15;;;;;;;;;;;;;;;23.76;49.02;97416.50;5053250;28;19909;-35
2022/10/19 02:02:45;;;;;;;;;;;;;;;23.74;48.97;97413.44;5053253;28;19913;-34
2022/10/19 02:05:11;;;;;;;;;;;;;;;23.80;49.15;97417.03;5053143;28;19909;-34
2022/10/19 02:07:39;;;;;;;;;;;;;;;23.83;48.79;97407.75;5053071;28;19909;-35
2022/10/19 02:10:05;;;;;;;;;;;;;;;23.83;49.08;97416.06;5053055;28;19917;-34
2022/10/19 02:12:32;;;;;;;;;;;;;;;23.81;49.26;97409.50;5053303;28;19908;-35
2022/10/19 02:15:01;;;;;;;;;;;;;;;23.75;49.23;97405.91;5053164;28;19954;-35
2022/10/19 02:17:32;;;;;;;;;;;;;;;23.73;49.36;97400.88;5056757;28;20268;-34
2022/10/19 02:19:58;;;;;;;;;;;;;;;23.77;49.47;97397.84;5056466;28;19916;-36
2022/10/19 02:22:26;;;;;;;;;;;;;;;23.82;49.14;97403.47;5056658;28;19913;-34
2022/10/19 02:24:52;;;;;;;;;;;;;;;23.83;49.25;97395.91;5056482;28;19908;-34
2022/10/19 02:27:17;;;;;;;;;;;;;;;23.81;49.24;97395.63;5056759;28;19909;-34
2022/10/19 02:29:43;;;;;;;;;;;;;;;23.79;49.32;97395.38;5056529;28;19908;-35
2022/10/19 02:32:09;;;;;;;;;;;;;;;23.78;49.39;97383.53;5056334;28;20420;-34
2022/10/19 02:34:35;;;;;;;;;;;;;;;23.79;49.31;97384.28;5056712;28;19909;-34
2022/10/19 02:37:00;;;;;;;;;;;;;;;23.78;49.28;97385.53;5056343;28;20296;-34
2022/10/19 02:39:26;;;;;;;;;;;;;;;23.79;49.53;97382.28;5056031;28;19912;-35
2022/10/19 02:42:04;;;;;;;;;;;;;;;23.78;49.48;97377.97;5056294;28;19986;-35
2022/10/19 02:44:32;;;;;;;;;;;;;;;23.71;49.70;97381.22;5056022;28;20322;-34
2022/10/19 02:47:05;;;;;;;;;;;;;;;23.78;49.47;97377.97;5056144;28;20364;-34
2022/10/19 02:49:33;;;;;;;;;;;;;;;23.80;49.60;97383.03;5056006;28;19994;-34
2022/10/19 02:52:02;;;;;;;;;;;;;;;23.73;49.52;97373.19;5055948;28;19909;-34
2022/10/19 02:54:28;;;;;;;;;;;;;;;23.77;49.29;97379.22;5055798;28;19908;-34
2022/10/19 02:56:54;;;;;;;;;;;;;;;23.79;49.17;97368.44;5056145;28;20395;-35
2022/10/19 02:59:19;;;;;;;;;;;;;;;23.71;49.49;97375.66;5056133;28;19909;-35
2022/10/19 03:01:44;;;;;;;;;;;;;;;23.72;49.67;97371.66;5056162;28;20383;-34
2022/10/19 03:04:10;;;;;;;;;;;;;;;23.72;49.46;97371.66;5056121;28;19909;-34
2022/10/19 03:06:35;;;;;;;;;;;;;;;23.74;49.18;97374.66;5055721;28;20360;-35
2022/10/19 03:09:00;;;;;;;;;;;;;;;23.81;49.24;97373.47;5055832;28;19975;-34
2022/10/19 03:11:26;;;;;;;;;;;;;;;23.76;49.15;97368.63;5055679;28;19999;-34
2022/10/19 03:13:51;;;;;;;;;;;;;;;23.71;49.21;97370.13;5054226;28;19996;-35
2022/10/19 03:16:16;;;;;;;;;;;;;;;23.67;49.24;97371.59;5055997;28;19931;-34
2022/10/19 03:18:42;;;;;;;;;;;;;;;23.71;49.19;97369.38;5055496;28;19909;-34
2022/10/19 03:21:08;;;;;;;;;;;;;;;23.69;49.28;97364.31;5055327;28;19920;-35
2022/10/19 03:23:34;;;;;;;;;;;;;;;23.70;49.05;97363.06;5055645;28;20276;-34
2022/10/19 03:25:59;;;;;;;;;;;;;;;23.68;49.29;97364.81;5055331;28;19908;-35
2022/10/19 03:28:24;;;;;;;;;;;;;;;23.68;49.13;97365.56;5055131;28;19995;-34
2022/10/19 03:30:50;;;;;;;;;;;;;;;23.67;48.95;97363.28;5055500;28;19916;-34
2022/10/19 03:33:15;;;;;;;;;;;;;;;23.61;49.28;97361.22;5055395;28;19916;-36
2022/10/19 03:35:43;;;;;;;;;;;;;;;23.64;49.10;97365.78;5055172;28;19971;-35
2022/10/19 03:38:09;;;;;;;;;;;;;;;23.66;49.10;97362.53;5054969;28;19916;-34
2022/10/19 03:40:34;;;;;;;;;;;;;;;23.63;49.03;97363.50;5055189;28;19913;-34
2022/10/19 03:43:01;;;;;;;;;;;;;;;23.63;49.00;97369.03;5053714;28;20380;-34
2022/10/19 03:45:26;;;;;;;;;;;;;;;23.63;49.31;97360.72;5055007;28;19916;-34
2022/10/19 03:47:51;;;;;;;;;;;;;;;23.65;49.39;97361.00;5055047;28;19963;-35
2022/10/19 03:50:17;;;;;;;;;;;;;;;23.65;49.15;97369.31;5054955;28;19908;-34
2022/10/19 03:52:43;;;;;;;;;;;;;;;23.67;49.29;97363.28;5054882;28;19908;-34
2022/10/19 03:55:09;;;;;;;;;;;;;;;23.60;49.34;97368.03;5053742;28;19915;-35
2022/10/19 03:57:34;;;;;;;;;;;;;;;23.67;49.30;97363.28;5054712;28;20331;-35
2022/10/19 04:00:00;;;;;;;;;;;;;;;23.66;49.31;97359.75;5054844;28;19908;-35
2022/10/19 04:02:25;;;;;;;;;;;;;;;23.69;49.04;97363.56;5054884;28;20007;-34
2022/10/19 04:04:50;;;;;;;;;;;;;;;23.65;49.28;97366.53;5054631;28;19913;-34
2022/10/19 04:07:16;;;;;;;;;;;;;;;23.63;49.28;97364.25;5054568;28;19995;-34
2022/10/19 04:09:41;;;;;;;;;;;;;;;23.69;49.35;97364.31;5054548;28;20007;-34
2022/10/19 04:12:07;;;;;;;;;;;;;;;23.67;49.07;97358.50;5053293;28;20355;-35
2022/10/19 04:14:33;;;;;;;;;;;;;;;23.60;49.44;97359.72;5054898;28;19959;-34
2022/10/19 04:17:00;;;;;;;;;;;;;;;23.57;49.38;97355.16;5054316;28;20331;-34
2022/10/19 04:19:25;;;;;;;;;;;;;;;23.70;49.43;97357.53;5054516;28;19913;-34
2022/10/19 04:21:51;;;;;;;;;;;;;;;23.63;49.63;97357.97;5054445;28;19923;-35
2022/10/19 04:24:17;;;;;;;;;;;;;;;23.60;49.62;97353.44;5054251;28;19915;-35
2022/10/19 04:26:43;;;;;;;;;;;;;;;23.63;49.43;97358.72;5054267;28;19962;-36
2022/10/19 04:29:10;;;;;;;;;;;;;;;23.63;49.66;97352.44;5054347;28;19909;-34
2022/10/19 04:31:35;;;;;;;;;;;;;;;23.62;49.46;97345.38;5052881;28;20391;-34
2022/10/19 04:34:03;;;;;;;;;;;;;;;23.60;49.47;97340.34;5054214;28;19909;-34
2022/10/19 04:36:28;;;;;;;;;;;;;;;23.63;49.44;97341.34;5054289;28;19908;-34
2022/10/19 04:38:54;;;;;;;;;;;;;;;23.60;49.76;97342.34;5051869;28;19916;-34
2022/10/19 04:41:20;;;;;;;;;;;;;;;23.65;49.35;97347.16;5054202;28;19913;-35
2022/10/19 04:43:45;;;;;;;;;;;;;;;23.57;49.54;97337.78;5054001;28;19909;-34
2022/10/19 04:46:12;;;;;;;;;;;;;;;23.57;49.73;97332.25;5054032;28;19919;-34
2022/10/19 04:48:38;;;;;;;;;;;;;;;23.54;49.84;97333.22;5054019;28;20348;-34
2022/10/19 04:51:04;;;;;;;;;;;;;;;23.60;49.60;97337.56;5053802;28;19916;-34
2022/10/19 04:53:30;;;;;;;;;;;;;;;23.59;49.59;97335.28;5054454;28;19915;-34
2022/10/19 04:55:56;;;;;;;;;;;;;;;23.57;49.81;97332.25;5073993;28;20386;-34
2022/10/19 04:58:22;;;;;;;;;;;;;;;23.57;49.67;97330.25;5073838;28;20379;-34
2022/10/19 05:00:49;;;;;;;;;;;;;;;23.60;49.48;97320.19;5072476;28;19912;-35
2022/10/19 05:03:14;;;;;;;;;;;;;;;23.57;49.50;97323.94;5073774;28;19944;-34
2022/10/19 05:05:40;;;;;;;;;;;;;;;23.52;49.45;97316.34;5073676;28;19916;-34
2022/10/19 05:08:05;;;;;;;;;;;;;;;23.57;49.46;97315.63;5073857;28;20421;-34
2022/10/19 05:10:30;;;;;;;;;;;;;;;23.53;49.31;97315.09;5074113;28;19912;-35
2022/10/19 05:12:56;;;;;;;;;;;;;;;23.51;49.64;97314.81;5073773;28;19993;-35
2022/10/19 05:15:21;;;;;;;;;;;;;;;23.53;49.42;97315.09;5073470;28;19971;-34
2022/10/19 05:17:47;;;;;;;;;;;;;;;23.52;49.32;97313.56;5072976;28;19909;-35
2022/10/19 05:20:12;;;;;;;;;;;;;;;23.53;49.29;97312.31;5052954;28;20381;-35
2022/10/19 05:22:38;;;;;;;;;;;;;;;23.52;49.36;97310.81;5051672;28;19916;-34
2022/10/19 05:25:04;;;;;;;;;;;;;;;23.52;49.34;97308.03;5051787;28;19978;-34
2022/10/19 05:27:30;;;;;;;;;;;;;;;23.51;49.52;97303.75;5051822;28;19912;-34
2022/10/19 05:29:55;;;;;;;;;;;;;;;23.43;49.49;97311.72;5051507;28;19908;-34
2022/10/19 05:32:20;;;;;;;;;;;;;;;23.50;49.21;97313.28;5069409;28;20421;-34
2022/10/19 05:34:46;;;;;;;;;;;;;;;23.33;49.72;97310.38;5071703;28;19970;-34
2022/10/19 05:37:11;;;;;;;;;;;;;;;23.47;49.12;97309.50;5071582;28;19916;-34
2022/10/19 05:39:37;;;;;;;;;;;;;;;23.46;49.39;97304.44;5071440;28;19917;-35
2022/10/19 05:42:02;;;;;;;;;;;;;;;23.47;49.40;97300.44;5071426;28;20209;-35
2022/10/19 05:44:27;;;;;;;;;;;;;;;23.52;48.96;97302.50;5071838;28;19916;-36
2022/10/19 05:46:53;;;;;;;;;;;;;;;23.46;49.25;97307.97;5071721;28;19915;-34
2022/10/19 05:49:19;;;;;;;;;;;;;;;23.44;49.28;97302.16;5071902;28;19919;-34
2022/10/19 05:51:45;;;;;;;;;;;;;;;23.54;49.17;97308.31;5075473;28;20321;-35
2022/10/19 05:54:11;;;;;;;;;;;;;;;23.42;49.34;97309.44;5075096;28;20014;-34
2022/10/19 05:56:37;;;;;;;;;;;;;;;23.37;49.33;97307.41;5075445;28;19965;-34
2022/10/19 05:59:03;;;;;;;;;;;;;;;23.48;49.16;97310.25;5075157;28;19908;-34
2022/10/19 06:01:29;;;;;;;;;;;;;;;23.48;48.98;97307.50;5075018;28;20416;-34
2022/10/19 06:03:55;;;;;;;;;;;;;;;23.52;48.96;97310.81;5075135;28;19912;-35
2022/10/19 06:06:21;;;;;;;;;;;;;;;23.53;49.04;97315.09;5075004;28;19919;-35
2022/10/19 06:08:48;;;;;;;;;;;;;;;23.49;49.21;97314.56;5075029;28;20283;-34
2022/10/19 06:11:14;;;;;;;;;;;;;;;23.44;49.15;97312.47;5075096;28;19920;-35
2022/10/19 06:13:41;;;;;;;;;;;;;;;23.49;49.09;97320.09;5075055;28;20020;-36
2022/10/19 06:16:07;;;;;;;;;;;;;;;23.43;49.15;97314.50;5074867;28;20275;-34
2022/10/19 06:18:32;;;;;;;;;;;;;;;23.45;49.34;97316.78;5074919;28;19912;-34
2022/10/19 06:21:05;;;;;;;;;;;;;;;23.42;49.33;97317.75;5074551;28;20007;-34
2022/10/19 06:23:32;;;;;;;;;;;;;;;23.48;49.07;97321.34;5057257;28;19915;-35
2022/10/19 06:26:00;;;;;;;;;;;;;;;23.47;49.10;97325.34;5056461;28;19916;-34
2022/10/19 06:28:25;;;;;;;;;;;;;;;23.43;49.16;97324.81;5056588;28;20010;-34
2022/10/19 06:30:51;;;;;;;;;;;;;;;23.41;49.33;97313.47;5066903;28;20003;-35
2022/10/19 06:33:16;;;;;;;;;;;;;;;23.47;49.01;97317.03;5059479;28;19908;-34
2022/10/19 06:35:41;;;;;;;;;;;;;;;23.45;49.07;97309.22;5055893;28;19908;-35
2022/10/19 06:38:07;;;;;;;;;;;;;;;23.38;49.35;97315.19;5074306;28;19919;-34
2022/10/19 06:40:35;;;;;;;;;;;;;;;23.38;49.29;97314.44;5073066;28;19978;-34
2022/10/19 06:43:00;;;;;;;;;;;;;;;23.44;49.39;97324.31;5074051;28;19908;-34
2022/10/19 06:45:26;;;;;;;;;;;;;;;23.36;49.62;97328.03;5074514;28;20082;-34
2022/10/19 06:47:51;;;;;;;;;;;;;;;23.38;49.59;97315.19;5070948;28;19916;-34
2022/10/19 06:50:17;;;;;;;;;;;;;;;23.36;49.39;97316.97;5052603;28;19932;-34
2022/10/19 06:52:42;;;;;;;;;;;;;;;23.35;49.55;97329.28;5052388;28;20384;-34
2022/10/19 06:55:08;;;;;;;;;;;;;;;23.36;49.37;97319.72;5053706;28;19908;-34
2022/10/19 06:57:34;;;;;;;;;;;;;;;23.36;49.54;97322.50;5053891;28;20382;-35
2022/10/19 06:59:59;;;;;;;;;;;;;;;23.41;49.17;97325.28;5054066;28;20339;-34
2022/10/19 07:02:24;;;;;;;;;;;;;;;23.35;49.59;97323.75;5051964;28;19919;-35
2022/10/19 07:04:49;;;;;;;;;;;;;;;23.33;49.61;97317.94;5053964;28;19908;-34
2022/10/19 07:07:15;;;;;;;;;;;;;;;23.36;49.56;97328.03;5053793;28;19969;-34
2022/10/19 07:09:40;;;;;;;;;;;;;;;23.45;49.63;97325.06;5053885;28;19952;-34
2022/10/19 07:12:07;;;;;;;;;;;;;;;23.48;49.00;97321.34;5053807;28;19919;-35
2022/10/19 07:14:37;;;;;;;;;;;;;;;22.67;51.89;97324.25;5053343;28;19912;-31
2022/10/19 07:17:03;;;;;;;;;;;;;;;22.81;51.42;97320.69;5054003;28;19971;-35
2022/10/19 07:19:28;;;;;;;;;;;;;;;23.05;50.66;97329.50;5053900;28;19952;-35
2022/10/19 07:21:53;;;;;;;;;;;;;;;23.26;50.03;97330.94;5053889;28;19913;-35
2022/10/19 07:24:19;;;;;;;;;;;;;;;23.40;49.57;97325.78;5053916;28;19916;-34
2022/10/19 07:26:46;;;;;;;;;;;;;;;23.41;49.48;97333.59;5053803;28;19916;-35
2022/10/19 07:29:11;;;;;;;;;;;;;;;23.41;49.62;97330.06;5053581;28;19912;-34
2022/10/19 07:31:36;;;;;;;;;;;;;;;23.33;49.88;97335.28;5051827;28;19935;-34
2022/10/19 07:34:02;;;;;;;;;;;;;;;23.48;49.38;97329.63;5053831;28;19908;-35
2022/10/19 07:36:29;;;;;;;;;;;;;;;23.42;49.81;97328.81;5053675;28;19913;-34
2022/10/19 07:38:55;;;;;;;;;;;;;;;23.40;49.78;97334.09;5055121;28;19916;-35
2022/10/19 07:41:21;;;;;;;;;;;;;;;23.49;49.54;97331.91;5072294;28;19927;-36
2022/10/19 07:43:47;;;;;;;;;;;;;;;23.41;49.77;97335.59;5073405;28;19908;-35
2022/10/19 07:46:17;;;;;;;;;;;;;;;23.50;49.62;97335.41;5073413;28;19912;-35
2022/10/19 07:48:43;;;;;;;;;;;;;;;23.54;49.49;97327.69;5073272;28;19970;-34
2022/10/19 07:51:09;;;;;;;;;;;;;;;23.59;49.39;97327.00;5073433;28;19912;-35
2022/10/19 07:53:35;;;;;;;;;;;;;;;23.46;49.54;97332.13;5073108;28;20367;-34
2022/10/19 07:56:11;;;;;;;;;;;;;;;23.46;49.86;97337.69;5072044;28;19989;-35
2022/10/19 07:58:37;;;;;;;;;;;;;;;23.48;49.64;97333.16;5074828;28;20384;-35
2022/10/19 08:01:25;;;;;;;;;;;;;;;23.51;49.54;97320.38;5073166;28;19919;-35
2022/10/19 08:03:51;;;;;;;;;;;;;;;23.46;49.57;97330.13;5074494;28;19915;-35
2022/10/19 08:06:18;;;;;;;;;;;;;;;23.48;49.51;97324.88;5074243;28;19914;-35
2022/10/19 08:08:44;;;;;;;;;;;;;;;23.31;50.08;97317.66;5073239;28;19916;-34
2022/10/19 08:11:11;;;;;;;;;;;;;;;23.45;49.59;97325.06;5074469;28;19999;-35
2022/10/19 08:13:36;;;;;;;;;;;;;;;23.51;49.76;97329.44;5074170;28;19908;-35
2022/10/19 08:16:03;;;;;;;;;;;;;;;23.45;49.71;97325.06;5073388;28;19915;-35
2022/10/19 08:18:29;;;;;;;;;;;;;;;23.47;49.78;97336.44;5074380;28;19915;-35
2022/10/19 08:20:55;;;;;;;;;;;;;;;23.51;49.61;97323.13;5072906;28;19912;-34
2022/10/19 08:23:21;;;;;;;;;;;;;;;23.50;49.61;97333.44;5074548;28;19908;-34
2022/10/19 08:25:47;;;;;;;;;;;;;;;23.38;49.67;97315.19;5074471;28;19915;-34
2022/10/19 08:28:12;;;;;;;;;;;;;;;23.46;49.48;97330.13;5074298;28;19912;-34
2022/10/19 08:30:37;;;;;;;;;;;;;;;23.46;49.69;97326.59;5072902;28;20352;-34
2022/10/19 08:33:06;;;;;;;;;;;;;;;23.49;49.42;97333.94;5074362;28;19912;-35
2022/10/19 08:35:31;;;;;;;;;;;;;;;23.51;49.41;97328.66;5074094;28;19992;-35
2022/10/19 08:37:57;;;;;;;;;;;;;;;23.54;49.40;97328.44;5073970;28;20451;-35
2022/10/19 08:40:25;;;;;;;;;;;;;;;23.55;49.37;97337.53;5073853;28;19966;-34
2022/10/19 08:43:13;;;;;;;;;;;;;;;23.56;49.48;97325.97;5073874;28;19915;-35
2022/10/19 08:45:47;;;;;;;;;;;;;;;23.54;49.50;97330.47;5069812;28;20372;-34
2022/10/19 08:48:19;;;;;;;;;;;;;;;23.53;49.51;97328.94;5074122;28;20390;-34
2022/10/19 08:50:45;;;;;;;;;;;;;;;23.56;49.23;97330.72;5074175;28;19915;-35
2022/10/19 08:53:14;;;;;;;;;;;;;;;23.47;49.68;97330.88;5074014;28;19908;-35
2022/10/19 08:55:48;;;;;;;;;;;;;;;23.55;49.41;97331.97;5074395;28;19998;-36
2022/10/19 08:58:17;;;;;;;;;;;;;;;23.48;49.55;97326.88;5073978;28;20360;-35
2022/10/19 09:00:49;;;;;;;;;;;;;;;23.38;49.64;97336.56;5073888;28;19912;-35
2022/10/19 09:03:20;;;;;;;;;;;;;;;23.44;49.80;97324.31;5073877;28;19908;-34
2022/10/19 09:05:52;;;;;;;;;;;;;;;23.28;50.28;97322.91;5073920;28;19915;-35
2022/10/19 09:08:18;;;;;;;;;;;;;;;23.40;49.41;97317.47;5072868;28;19947;-34
2022/10/19 09:10:46;;;;;;;;;;;;;;;23.47;49.33;97325.34;5073836;28;19948;-34
2022/10/19 09:13:23;;;;;;;;;;;;;;;23.55;49.49;97320.91;5073650;28;19959;-35
2022/10/19 09:15:50;;;;;;;;;;;;;;;23.35;49.45;97332.81;5073595;28;19908;-35
2022/10/19 09:18:24;;;;;;;;;;;;;;;23.26;50.02;97327.41;5073735;28;19916;-35
2022/10/19 09:20:57;;;;;;;;;;;;;;;23.27;50.00;97320.63;5073737;28;19916;-35
2022/10/19 09:23:28;;;;;;;;;;;;;;;23.35;49.32;97326.50;5073823;28;20387;-35
2022/10/19 09:25:55;;;;;;;;;;;;;;;23.48;49.53;97324.88;5076604;28;20381;-34
2022/10/19 09:28:34;;;;;;;;;;;;;;;23.44;49.58;97323.56;5077653;28;19962;-35
2022/10/19 09:31:01;;;;;;;;;;;;;;;23.48;49.55;97327.63;5077708;28;20287;-34
2022/10/19 09:33:32;;;;;;;;;;;;;;;23.51;49.26;97328.66;5077710;28;19915;-34
2022/10/19 09:35:59;;;;;;;;;;;;;;;23.24;49.43;97321.63;5077584;28;19936;-35
2022/10/19 09:38:25;;;;;;;;;;;;;;;23.29;49.46;97329.22;5077277;28;19959;-36
2022/10/19 09:40:51;;;;;;;;;;;;;;;23.46;49.67;97329.38;5077282;28;19916;-34
2022/10/19 09:43:20;;;;;;;;;;;;;;;23.54;49.25;97328.44;5077726;28;19961;-35
2022/10/19 09:45:49;;;;;;;;;;;;;;;23.62;49.11;97328.75;5077456;28;19943;-35
2022/10/19 09:48:27;;;;;;;;;;;;;;;23.58;49.13;97329.00;5077510;28;19915;-35
2022/10/19 09:51:09;;;;;;;;;;;;;;;23.58;49.09;97336.53;5077294;28;19908;-34
2022/10/19 09:53:34;;;;;;;;;;;;;;;23.65;48.83;97338.84;5077368;28;19916;-35
2022/10/19 09:56:05;;;;;;;;;;;;;;;23.65;48.93;97341.63;5076087;28;19912;-35
2022/10/19 09:58:30;;;;;;;;;;;;;;;23.61;49.10;97343.88;5075597;28;19913;-34
2022/10/19 10:00:56;;;;;;;;;;;;;;;23.62;48.80;97340.59;5076173;28;20003;-34
2022/10/19 10:03:25;;;;;;;;;;;;;;;23.66;48.60;97340.38;5075689;28;19919;-34
2022/10/19 10:05:51;;;;;;;;;;;;;;;23.67;48.86;97336.34;5076958;28;20002;-35
2022/10/19 10:08:18;;;;;;;;;;;;;;;23.69;48.71;97331.09;5077162;28;20425;-34
2022/10/19 10:10:52;;;;;;;;;;;;;;;23.67;48.51;97335.59;5077005;28;19912;-34
2022/10/19 10:13:22;;;;;;;;;;;;;;;23.63;48.96;97330.28;5077253;28;19962;-35
2022/10/19 10:15:49;;;;;;;;;;;;;;;23.65;48.67;97327.78;5076916;28;19939;-34
2022/10/19 10:18:16;;;;;;;;;;;;;;;23.67;48.78;97328.03;5076784;28;19915;-34
2022/10/19 10:21:00;;;;;;;;;;;;;;;23.64;48.72;97320.72;5076685;28;19916;-35
2022/10/19 10:23:28;;;;;;;;;;;;;;;23.56;48.85;97322.44;5076749;28;19919;-35
2022/10/19 10:25:58;;;;;;;;;;;;;;;23.59;49.11;97321.44;5076947;28;19970;-34
2022/10/19 10:28:24;;;;;;;;;;;;;;;23.58;48.92;97317.16;5076498;28;19947;-34
2022/10/19 10:31:02;;;;;;;;;;;;;;;23.62;48.91;97314.91;5076413;28;19948;-34
2022/10/19 10:33:28;;;;;;;;;;;;;;;23.57;48.97;97321.19;5076475;28;19908;-35
2022/10/19 10:35:56;;;;;;;;;;;;;;;23.58;49.17;97312.38;5075381;28;19909;-35
2022/10/19 10:38:31;;;;;;;;;;;;;;;23.59;48.74;97313.91;5076073;28;19940;-34
2022/10/19 10:41:01;;;;;;;;;;;;;;;23.65;48.77;97311.16;5076377;28;20326;-34
2022/10/19 10:43:31;;;;;;;;;;;;;;;23.59;48.89;97311.13;5076552;28;19970;-35
2022/10/19 10:46:05;;;;;;;;;;;;;;;23.63;48.70;97308.13;5076312;28;19908;-35
2022/10/19 10:48:50;;;;;;;;;;;;;;;23.63;48.94;97302.59;5076295;28;19909;-34
2022/10/19 10:51:31;;;;;;;;;;;;;;;23.58;48.99;97295.78;5075854;28;19915;-34
2022/10/19 10:54:16;;;;;;;;;;;;;;;23.56;49.35;97303.03;5076115;28;19962;-34
2022/10/19 10:56:42;;;;;;;;;;;;;;;23.67;48.91;97286.50;5074767;28;19960;-34
2022/10/19 10:59:20;;;;;;;;;;;;;;;23.67;48.84;97286.50;5075998;28;19947;-36
2022/10/19 11:02:04;;;;;;;;;;;;;;;23.64;49.12;97293.78;5076116;28;19958;-34
2022/10/19 11:04:36;;;;;;;;;;;;;;;23.72;48.74;97282.28;5076092;28;19915;-35
2022/10/19 11:07:09;;;;;;;;;;;;;;;23.68;48.75;97284.50;5074710;28;19916;-35
2022/10/19 11:09:37;;;;;;;;;;;;;;;23.63;48.85;97285.97;5076188;28;19912;-35
2022/10/19 11:12:04;;;;;;;;;;;;;;;23.68;48.50;97278.97;5075781;28;19908;-34
2022/10/19 11:14:37;;;;;;;;;;;;;;;23.66;48.70;97271.16;5075549;28;19908;-35
2022/10/19 11:17:05;;;;;;;;;;;;;;;23.68;48.60;97268.66;5075560;28;19954;-34
2022/10/19 11:19:33;;;;;;;;;;;;;;;23.69;48.59;97267.41;5075581;28;19908;-35
2022/10/19 11:22:09;;;;;;;;;;;;;;;23.67;48.77;97269.91;5075708;28;19962;-35
2022/10/19 11:24:40;;;;;;;;;;;;;;;23.67;48.69;97258.81;5075591;28;19934;-34
2022/10/19 11:27:08;;;;;;;;;;;;;;;23.74;48.29;97266.66;5075398;28;19954;-35
2022/10/19 11:29:37;;;;;;;;;;;;;;;23.71;48.54;97258.59;5075724;28;19962;-35
2022/10/19 11:32:04;;;;;;;;;;;;;;;23.70;48.57;97254.31;5075382;28;20442;-34
2022/10/19 11:34:35;;;;;;;;;;;;;;;23.63;48.30;97252.75;5075442;28;19912;-35
2022/10/19 11:37:25;;;;;;;;;;;;;;;23.71;48.43;97259.34;5075175;28;19909;-35
2022/10/19 11:40:09;;;;;;;;;;;;;;;23.70;48.25;97252.28;5075075;28;19916;-35
2022/10/19 11:42:36;;;;;;;;;;;;;;;23.75;47.96;97251.56;5073900;28;19916;-34
2022/10/19 11:45:13;;;;;;;;;;;;;;;23.73;48.01;97245.78;5074984;28;19920;-35
2022/10/19 11:47:52;;;;;;;;;;;;;;;23.71;48.10;97247.53;5074862;28;19999;-34
2022/10/19 11:50:24;;;;;;;;;;;;;;;23.72;47.88;97240.72;5075038;28;20326;-35
2022/10/19 11:53:02;;;;;;;;;;;;;;;23.75;47.70;97234.19;5074889;28;19915;-35
2022/10/19 11:55:37;;;;;;;;;;;;;;;23.69;48.32;97241.72;5075133;28;19908;-34
2022/10/19 11:58:11;;;;;;;;;;;;;;;23.77;48.03;97242.75;5073288;28;20322;-35
2022/10/19 12:00:53;;;;;;;;;;;;;;;23.75;47.86;97229.41;5074855;28;19965;-34
2022/10/19 12:03:22;;;;;;;;;;;;;;;23.78;47.89;97220.09;5074901;28;19908;-35
2022/10/19 12:05:50;;;;;;;;;;;;;;;23.78;48.08;97224.88;5074473;28;20445;-34
2022/10/19 12:08:15;;;;;;;;;;;;;;;23.76;48.05;97221.84;5074659;28;19936;-35
2022/10/19 12:10:53;;;;;;;;;;;;;;;23.78;48.10;97220.09;5073290;28;19920;-35
2022/10/19 12:13:21;;;;;;;;;;;;;;;23.77;47.95;97224.13;5074535;28;19939;-36
2022/10/19 12:16:09;;;;;;;;;;;;;;;23.81;47.58;97218.38;5074487;28;19908;-35
2022/10/19 12:18:43;;;;;;;;;;;;;;;23.80;47.77;97212.06;5074619;28;19908;-35
2022/10/19 12:21:44;;;;;;;;;;;;;;;23.80;47.94;97212.06;5074118;28;19944;-35
2022/10/19 12:24:12;;;;;;;;;;;;;;;23.81;47.73;97213.59;5072269;28;19915;-35
2022/10/19 12:26:39;;;;;;;;;;;;;;;23.79;47.74;97216.09;5072212;28;19912;-35
2022/10/19 12:29:11;;;;;;;;;;;;;;;23.76;48.06;97211.53;5072377;28;19946;-35
2022/10/19 12:31:37;;;;;;;;;;;;;;;23.79;47.78;97213.31;5072300;28;19909;-35
2022/10/19 12:34:07;;;;;;;;;;;;;;;23.83;47.99;97213.84;5072019;28;19909;-36
2022/10/19 12:36:49;;;;;;;;;;;;;;;23.84;47.82;97215.38;5072101;28;19912;-34
2022/10/19 12:39:17;;;;;;;;;;;;;;;23.85;47.59;97214.13;5071700;28;19963;-35
2022/10/19 12:42:20;;;;;;;;;;;;;;;23.87;47.74;97217.13;5071845;28;19999;-35
2022/10/19 12:45:01;;;;;;;;;;;;;;;23.83;47.72;97211.06;5072306;28;19909;-34
2022/10/19 12:47:26;;;;;;;;;;;;;;;23.79;47.77;97199.47;5071796;28;20403;-34
2022/10/19 12:49:54;;;;;;;;;;;;;;;23.80;47.74;97206.53;5071894;28;19912;-34
2022/10/19 12:52:39;;;;;;;;;;;;;;;23.86;47.78;97198.25;5054971;28;19916;-35
2022/10/19 12:55:16;;;;;;;;;;;;;;;23.85;47.63;97197.50;5070729;28;19908;-35